Time;durP1;ratioP1;P1;durP2;ratioP2;P2;SDS_P1;SDS_P2;PMS_P1;PMS_P2;Temp;Humidity;BMP_temperature;BMP_pressure;BME280_temperature;BME280_humidity;BME280_pressure;Samples;Min_cycle;Max_cycle;Signal;HPM_P1;HPM_P2
2023/02/08 00:01:45;;;;;;;11.00;10.00;;;-1.40;1.00;;;;;;5031802;28;20207;-64
2023/02/08 00:04:11;;;;;;;9.93;8.87;;;-1.40;1.00;;;;;;5031903;28;20268;-64
2023/02/08 00:06:36;;;;;;;9.23;8.63;;;-1.40;1.00;;;;;;5032963;28;20215;-64
2023/02/08 00:09:02;;;;;;;10.13;9.27;;;-1.40;1.00;;;;;;5033514;28;20560;-64
2023/02/08 00:11:28;;;;;;;10.50;9.70;;;-1.40;1.00;;;;;;5032609;28;20200;-65
2023/02/08 00:13:53;;;;;;;9.20;8.63;;;-1.40;1.00;;;;;;5032101;28;20179;-64
2023/02/08 00:16:19;;;;;;;9.93;9.33;;;-1.40;1.00;;;;;;5031351;28;20183;-64
2023/02/08 00:18:45;;;;;;;9.30;8.80;;;-1.40;1.00;;;;;;5033118;28;20203;-64
2023/02/08 00:21:13;;;;;;;8.83;8.33;;;-1.40;1.00;;;;;;5032376;28;20763;-64
2023/02/08 00:23:39;;;;;;;9.97;9.37;;;-1.40;1.00;;;;;;5032775;28;20262;-63
2023/02/08 00:26:05;;;;;;;8.90;8.43;;;-1.50;1.00;;;;;;5032952;28;20290;-63
2023/02/08 00:28:30;;;;;;;9.10;8.43;;;-1.50;1.00;;;;;;5032464;28;20179;-64
2023/02/08 00:30:56;;;;;;;9.77;9.17;;;-1.50;1.00;;;;;;5032433;28;20301;-63
2023/02/08 00:33:22;;;;;;;10.23;9.57;;;-1.50;1.00;;;;;;5032811;28;20172;-64
2023/02/08 00:35:48;;;;;;;10.63;9.83;;;-1.50;1.00;;;;;;5032401;28;20645;-64
2023/02/08 00:38:13;;;;;;;11.77;10.50;;;-1.60;1.00;;;;;;5032536;28;20262;-64
2023/02/08 00:40:39;;;;;;;12.23;11.13;;;-1.60;1.00;;;;;;5031968;28;20222;-64
2023/02/08 00:43:05;;;;;;;10.23;9.63;;;-1.60;1.00;;;;;;5032639;28;20615;-64
2023/02/08 00:45:31;;;;;;;12.03;10.80;;;-1.60;1.00;;;;;;5032164;28;20261;-65
2023/02/08 00:47:57;;;;;;;9.93;9.33;;;-1.70;1.00;;;;;;5032586;28;20186;-63
2023/02/08 00:50:23;;;;;;;10.83;10.13;;;-1.70;1.00;;;;;;5031767;28;20195;-64
2023/02/08 00:52:48;;;;;;;9.30;8.80;;;-1.70;1.00;;;;;;5032222;28;20307;-65
2023/02/08 00:55:14;;;;;;;10.43;9.73;;;-1.80;1.00;;;;;;5032120;28;20209;-64
2023/02/08 00:57:40;;;;;;;9.87;9.37;;;-1.80;1.00;;;;;;5032362;28;20171;-64
2023/02/08 01:00:07;;;;;;;9.90;9.30;;;-1.90;28.30;;;;;;5031812;28;20235;-65
2023/02/08 01:02:32;;;;;;;9.40;8.83;;;-2.00;19.70;;;;;;5032006;28;20188;-64
2023/02/08 01:04:58;;;;;;;9.27;8.87;;;-2.00;28.40;;;;;;5032192;28;20230;-64
2023/02/08 01:07:23;;;;;;;9.67;9.07;;;-2.10;87.80;;;;;;5031821;28;20190;-64
2023/02/08 01:09:49;;;;;;;10.47;9.87;;;-2.10;99.90;;;;;;5031781;28;20241;-64
2023/02/08 01:12:15;;;;;;;9.50;9.00;;;-2.20;99.90;;;;;;5030282;28;20187;-64
2023/02/08 01:14:41;;;;;;;10.90;10.17;;;-2.20;99.90;;;;;;5032024;28;20640;-64
2023/02/08 01:17:06;;;;;;;9.73;8.83;;;-2.20;99.90;;;;;;5031895;28;20225;-64
2023/02/08 01:19:33;;;;;;;9.33;8.90;;;-2.30;99.90;;;;;;5031496;28;20188;-64
2023/02/08 01:21:59;;;;;;;8.83;8.40;;;-2.30;99.90;;;;;;5031842;28;20199;-64
2023/02/08 01:24:24;;;;;;;9.40;8.80;;;-2.30;1.00;;;;;;5031687;28;20187;-65
2023/02/08 01:26:50;;;;;;;9.93;9.13;;;-2.40;99.90;;;;;;5031945;28;20207;-64
2023/02/08 01:29:16;;;;;;;10.37;9.47;;;-2.40;99.90;;;;;;5031362;28;20224;-64
2023/02/08 01:31:42;;;;;;;9.37;8.93;;;-2.40;99.90;;;;;;5031701;28;20214;-63
2023/02/08 01:34:09;;;;;;;8.60;8.10;;;-2.40;99.90;;;;;;5031589;28;20258;-64
2023/02/08 01:36:36;;;;;;;9.33;8.70;;;-2.40;99.90;;;;;;5031979;28;20546;-64
2023/02/08 01:39:03;;;;;;;10.17;9.57;;;-2.40;1.00;;;;;;5031939;28;20192;-63
2023/02/08 01:41:32;;;;;;;8.77;8.10;;;-2.40;1.00;;;;;;5055313;22;20595;-64
2023/02/08 01:44:12;;;;;;;9.63;9.03;;;-2.40;1.00;;;;;;5042270;28;20191;-65
2023/02/08 01:46:50;;;;;;;9.83;9.27;;;-2.40;1.00;;;;;;5050573;28;20683;-65
2023/02/08 01:49:26;;;;;;;9.37;8.93;;;-2.40;1.00;;;;;;5050841;28;20174;-65
2023/02/08 01:52:08;;;;;;;9.70;9.10;;;-2.40;1.00;;;;;;5046160;28;20199;-65
2023/02/08 01:54:39;;;;;;;9.57;8.93;;;-2.50;99.90;;;;;;5031330;28;20719;-65
2023/02/08 01:57:06;;;;;;;9.53;8.97;;;-2.50;99.90;;;;;;5035851;28;20214;-65
2023/02/08 02:00:00;;;;;;;10.70;10.00;;;-2.50;1.00;;;;;;5050947;28;20833;-65
2023/02/08 02:02:26;;;;;;;10.63;9.83;;;-2.50;1.00;;;;;;5037684;28;20191;-65
2023/02/08 02:04:52;;;;;;;10.23;9.53;;;-2.50;99.90;;;;;;5031571;28;20700;-64
2023/02/08 02:07:20;;;;;;;9.60;9.10;;;-2.50;99.90;;;;;;5041714;28;20206;-65
2023/02/08 02:10:09;;;;;;;10.87;9.63;;;-2.60;99.90;;;;;;5050553;28;20216;-64
2023/02/08 02:12:36;;;;;;;10.27;9.67;;;-2.60;99.90;;;;;;5035118;28;20171;-64
2023/02/08 02:15:03;;;;;;;9.00;8.50;;;-2.60;99.90;;;;;;5041595;28;20179;-64
2023/02/08 02:17:29;;;;;;;13.90;10.33;;;-2.60;1.00;;;;;;5054858;28;20193;-64
2023/02/08 02:20:11;;;;;;;9.20;8.80;;;-2.60;99.90;;;;;;5049017;28;20207;-64
2023/02/08 02:23:03;;;;;;;10.87;10.07;;;-2.70;99.90;;;;;;5035005;28;20167;-64
2023/02/08 02:25:43;;;;;;;10.00;9.13;;;-2.70;1.00;;;;;;5043355;28;20695;-64
2023/02/08 02:28:30;;;;;;;8.73;8.33;;;-2.70;99.90;;;;;;5054672;28;20219;-64
2023/02/08 02:31:14;;;;;;;9.27;8.60;;;-2.80;99.90;;;;;;5041660;28;20199;-64
2023/02/08 02:33:52;;;;;;;9.43;8.87;;;-2.90;1.00;;;;;;5046764;28;20236;-65
2023/02/08 02:37:02;;;;;;;11.60;10.83;;;-2.80;1.00;;;;;;5054467;28;20178;-65
2023/02/08 02:39:40;;;;;;;9.97;9.47;;;-2.80;74.90;;;;;;5035965;28;20237;-64
2023/02/08 02:45:38;;;;;;;9.50;9.03;;;-2.80;99.90;;;;;;5014998;28;20546;-64
2023/02/08 02:48:18;;;;;;;9.83;9.33;;;-2.90;99.90;;;;;;5030399;28;20175;-64
2023/02/08 02:50:56;;;;;;;9.70;9.10;;;-2.90;99.90;;;;;;5054431;28;20236;-64
2023/02/08 02:53:26;;;;;;;10.33;9.73;;;-2.90;1.00;;;;;;5044343;28;20229;-64
2023/02/08 02:56:14;;;;;;;10.00;9.40;;;-2.80;1.00;;;;;;5034418;28;20198;-64
2023/02/08 02:58:42;;;;;;;9.93;9.23;;;-2.80;1.00;;;;;;5044503;28;20175;-64
2023/02/08 03:01:07;;;;;;;8.73;8.17;;;-2.80;99.90;;;;;;5044763;28;20285;-64
2023/02/08 03:03:34;;;;;;;9.77;9.07;;;-2.70;1.00;;;;;;5034179;28;20737;-64
2023/02/08 03:06:05;;;;;;;9.63;9.03;;;-2.70;99.90;;;;;;5041100;28;20210;-64
2023/02/08 03:08:54;;;;;;;10.73;9.13;;;-2.60;35.90;;;;;;5053911;28;20263;-64
2023/02/08 03:11:25;;;;;;;10.10;9.50;;;-2.50;1.00;;;;;;5042575;28;20222;-64
2023/02/08 03:14:03;;;;;;;10.23;9.43;;;-2.40;99.90;;;;;;5034022;28;20183;-64
2023/02/08 03:16:56;;;;;;;9.27;8.77;;;-2.40;1.00;;;;;;5043779;28;20171;-63
2023/02/08 03:19:34;;;;;;;9.23;8.63;;;-2.30;1.00;;;;;;5053392;28;20182;-64
2023/02/08 03:22:13;;;;;;;9.60;9.10;;;-2.20;99.90;;;;;;5039771;28;20560;-64
2023/02/08 03:24:54;;;;;;;9.20;8.60;;;-2.20;99.90;;;;;;5033814;28;20194;-64
2023/02/08 03:27:35;;;;;;;8.80;8.20;;;-2.20;99.90;;;;;;5048555;28;20340;-64
2023/02/08 03:30:26;;;;;;;9.50;8.93;;;-2.20;99.90;;;;;;5052283;28;20166;-64
2023/02/08 03:33:06;;;;;;;9.00;8.47;;;-2.20;58.10;;;;;;5033046;28;20186;-64
2023/02/08 03:35:51;;;;;;;9.33;8.73;;;-2.10;26.50;;;;;;5054072;28;20178;-65
2023/02/08 03:38:32;;;;;;;9.60;9.07;;;-2.10;1.00;;;;;;5053602;28;20179;-65
2023/02/08 03:41:01;;;;;;;10.00;9.33;;;-2.10;1.00;;;;;;5052848;28;20635;-64
2023/02/08 03:43:31;;;;;;;11.07;10.00;;;-2.10;1.00;;;;;;5033265;28;20233;-64
2023/02/08 03:46:16;;;;;;;11.50;10.00;;;-2.20;1.00;;;;;;5033377;28;20226;-64
2023/02/08 03:48:48;;;;;;;9.97;9.07;;;-2.20;1.00;;;;;;5013725;28;20180;-64
2023/02/08 03:51:15;;;;;;;10.07;9.33;;;-2.10;1.00;;;;;;5015854;28;20188;-64
2023/02/08 03:53:45;;;;;;;9.43;8.87;;;-2.10;1.00;;;;;;5053279;28;20209;-64
2023/02/08 03:56:20;;;;;;;11.27;9.90;;;-2.10;9.10;;;;;;5052192;28;20198;-64
2023/02/08 03:58:58;;;;;;;9.57;8.93;;;-2.10;5.80;;;;;;5033298;28;20176;-64
2023/02/08 04:01:29;;;;;;;9.93;9.07;;;-2.20;6.70;;;;;;5034194;28;20187;-64
2023/02/08 04:03:56;;;;;;;11.13;10.23;;;-2.10;4.80;;;;;;5053064;28;20221;-64
2023/02/08 04:06:22;;;;;;;10.23;9.23;;;-2.10;1.00;;;;;;5051368;28;20256;-64
2023/02/08 04:08:49;;;;;;;9.83;9.23;;;-2.20;1.00;;;;;;5033000;28;20577;-64
2023/02/08 04:11:15;;;;;;;11.03;10.13;;;-2.10;1.00;;;;;;5032501;28;20749;-64
2023/02/08 04:13:41;;;;;;;9.60;9.10;;;-2.20;1.00;;;;;;5052312;28;20253;-64
2023/02/08 04:16:08;;;;;;;10.33;9.53;;;-2.20;1.00;;;;;;5052691;28;20553;-64
2023/02/08 04:18:33;;;;;;;10.37;9.47;;;-2.10;28.40;;;;;;5033030;28;20517;-64
2023/02/08 04:20:59;;;;;;;11.10;10.13;;;-2.20;9.70;;;;;;5032447;28;20199;-64
2023/02/08 04:23:24;;;;;;;10.57;9.83;;;-2.20;23.10;;;;;;5050196;28;20266;-64
2023/02/08 04:25:50;;;;;;;10.03;9.40;;;-2.10;30.90;;;;;;5052595;28;20202;-65
2023/02/08 04:28:15;;;;;;;9.57;8.97;;;-2.20;19.50;;;;;;5035483;28;20641;-64
2023/02/08 04:30:41;;;;;;;10.37;9.87;;;-2.20;19.30;;;;;;5032223;28;20198;-64
2023/02/08 04:33:07;;;;;;;9.47;8.87;;;-2.20;37.40;;;;;;5034730;28;20264;-64
2023/02/08 04:35:33;;;;;;;10.00;9.20;;;-2.20;55.20;;;;;;5032821;28;20179;-64
2023/02/08 04:37:58;;;;;;;8.87;8.47;;;-2.20;47.10;;;;;;5032451;28;20214;-65
2023/02/08 04:40:24;;;;;;;9.53;8.93;;;-2.20;69.80;;;;;;5031965;28;20277;-64
2023/02/08 04:42:49;;;;;;;10.00;9.10;;;-2.20;42.70;;;;;;5032529;28;20202;-64
2023/02/08 04:45:15;;;;;;;9.83;8.80;;;-2.10;29.90;;;;;;5032348;28;20179;-64
2023/02/08 04:47:41;;;;;;;9.90;9.03;;;-2.10;3.50;;;;;;5046687;28;20710;-64
2023/02/08 04:50:06;;;;;;;10.33;9.67;;;-2.10;1.00;;;;;;5051260;28;20264;-64
2023/02/08 04:52:32;;;;;;;9.97;9.03;;;-2.10;1.00;;;;;;5032219;28;20810;-64
2023/02/08 04:54:58;;;;;;;10.47;9.30;;;-2.10;5.20;;;;;;5032029;28;20168;-63
2023/02/08 04:57:23;;;;;;;9.50;8.90;;;-2.10;2.40;;;;;;5049896;28;20179;-64
2023/02/08 04:59:49;;;;;;;9.67;9.07;;;-2.10;18.60;;;;;;5042111;28;20182;-64
2023/02/08 05:02:14;;;;;;;9.17;8.57;;;-2.10;10.30;;;;;;5031606;28;20214;-64
2023/02/08 05:04:40;;;;;;;9.30;8.63;;;-2.10;6.30;;;;;;5038865;28;20525;-64
2023/02/08 05:07:05;;;;;;;8.87;8.37;;;-2.10;1.00;;;;;;5051736;28;20297;-64
2023/02/08 05:09:31;;;;;;;9.60;8.97;;;-2.10;1.00;;;;;;5045733;28;20171;-64
2023/02/08 05:11:56;;;;;;;10.50;9.87;;;-2.10;1.00;;;;;;5031655;28;20680;-64
2023/02/08 05:14:22;;;;;;;9.63;9.13;;;-2.10;1.00;;;;;;5035159;28;20175;-64
2023/02/08 05:16:48;;;;;;;12.70;9.40;;;-2.10;1.00;;;;;;5051557;28;20305;-63
2023/02/08 05:19:13;;;;;;;8.90;8.43;;;-2.10;1.00;;;;;;5048872;28;20179;-64
2023/02/08 05:21:39;;;;;;;11.63;10.80;;;-2.20;1.00;;;;;;5031686;28;20306;-64
2023/02/08 05:24:06;;;;;;;11.60;10.63;;;-2.30;1.00;;;;;;5031317;28;20262;-64
2023/02/08 05:26:32;;;;;;;11.73;10.97;;;-2.30;1.00;;;;;;5051127;28;20288;-63
2023/02/08 05:28:57;;;;;;;10.17;9.50;;;-2.30;1.00;;;;;;5051235;28;20206;-64
2023/02/08 05:31:24;;;;;;;9.73;9.13;;;-2.40;1.00;;;;;;5031923;28;20210;-64
2023/02/08 05:33:51;;;;;;;11.33;10.47;;;-2.50;1.00;;;;;;5031682;28;20202;-63
2023/02/08 05:36:18;;;;;;;10.70;9.73;;;-2.50;22.50;;;;;;5048294;28;20588;-64
2023/02/08 05:38:43;;;;;;;10.90;9.90;;;-2.50;67.00;;;;;;5051251;28;20203;-64
2023/02/08 05:41:09;;;;;;;9.90;9.10;;;-2.60;99.90;;;;;;5033905;28;20584;-64
2023/02/08 05:43:35;;;;;;;11.07;10.37;;;-2.60;99.90;;;;;;5029805;28;20184;-63
2023/02/08 05:46:01;;;;;;;9.83;9.23;;;-2.60;99.90;;;;;;5044722;28;20210;-64
2023/02/08 05:48:27;;;;;;;9.83;9.10;;;-2.60;99.90;;;;;;5050831;28;20189;-64
2023/02/08 05:50:52;;;;;;;9.67;8.90;;;-2.60;99.90;;;;;;5038253;28;20282;-63
2023/02/08 05:53:18;;;;;;;9.10;8.70;;;-2.70;99.90;;;;;;5031011;28;20167;-64
2023/02/08 05:55:45;;;;;;;10.70;9.90;;;-2.70;99.90;;;;;;5041475;28;20194;-64
2023/02/08 05:58:11;;;;;;;9.73;9.07;;;-2.70;99.90;;;;;;5042567;28;20274;-64
2023/02/08 06:00:37;;;;;;;17.40;10.37;;;-2.70;1.00;;;;;;5030571;28;20680;-64
2023/02/08 06:03:03;;;;;;;10.40;9.53;;;-2.70;1.00;;;;;;5037344;28;20191;-64
2023/02/08 06:05:28;;;;;;;10.17;9.57;;;-2.70;1.00;;;;;;5050898;28;20285;-64
2023/02/08 06:07:54;;;;;;;9.87;9.33;;;-2.60;1.00;;;;;;5046188;28;20187;-64
2023/02/08 06:10:20;;;;;;;10.60;9.57;;;-2.70;1.00;;;;;;5030385;28;20732;-64
2023/02/08 06:12:45;;;;;;;10.07;9.30;;;-2.70;1.00;;;;;;5033276;28;20195;-63
2023/02/08 06:15:11;;;;;;;9.67;8.87;;;-2.70;1.00;;;;;;5050803;28;20206;-64
2023/02/08 06:17:37;;;;;;;9.50;9.00;;;-2.70;1.00;;;;;;5049967;28;20662;-64
2023/02/08 06:20:03;;;;;;;9.73;9.23;;;-2.70;1.00;;;;;;5031941;28;20179;-64
2023/02/08 06:22:29;;;;;;;9.73;9.20;;;-2.70;1.00;;;;;;5032351;28;20463;-64
2023/02/08 06:24:54;;;;;;;9.33;8.77;;;-2.70;1.00;;;;;;5033828;28;20214;-64
2023/02/08 06:27:20;;;;;;;10.47;9.87;;;-2.70;1.00;;;;;;5032501;28;20210;-64
2023/02/08 06:29:45;;;;;;;10.87;9.97;;;-2.70;1.00;;;;;;5049274;28;20182;-64
2023/02/08 06:32:11;;;;;;;9.60;9.07;;;-2.60;1.00;;;;;;5037669;28;20207;-64
2023/02/08 06:34:36;;;;;;;10.90;10.07;;;-2.60;1.00;;;;;;5030784;28;20253;-65
2023/02/08 06:37:04;;;;;;;9.90;9.20;;;-2.60;99.90;;;;;;5041567;28;20182;-64
2023/02/08 06:39:30;;;;;;;10.83;9.87;;;-2.60;99.90;;;;;;5050530;28;20175;-64
2023/02/08 06:41:55;;;;;;;11.90;11.20;;;-2.60;99.90;;;;;;5040929;28;20222;-64
2023/02/08 06:44:21;;;;;;;9.77;9.17;;;-2.60;99.90;;;;;;5030686;28;20228;-65
2023/02/08 06:46:47;;;;;;;15.40;9.97;;;-2.60;99.90;;;;;;5038051;28;20209;-65
2023/02/08 06:49:12;;;;;;;9.53;8.93;;;-2.60;99.90;;;;;;5050337;28;20171;-65
2023/02/08 06:51:38;;;;;;;9.83;9.23;;;-2.60;99.90;;;;;;5046097;28;20199;-65
2023/02/08 06:54:04;;;;;;;9.73;9.23;;;-2.60;99.90;;;;;;5034485;28;20171;-65
2023/02/08 06:56:29;;;;;;;10.70;10.07;;;-2.60;99.90;;;;;;5037802;28;20297;-65
2023/02/08 06:58:56;;;;;;;10.53;9.70;;;-2.60;99.90;;;;;;5054311;28;20178;-65
2023/02/08 07:01:21;;;;;;;11.33;10.47;;;-2.60;99.90;;;;;;5051461;28;20286;-65
2023/02/08 07:03:47;;;;;;;10.73;10.00;;;-2.50;99.90;;;;;;5034481;28;20263;-64
2023/02/08 07:06:17;;;;;;;9.90;9.30;;;-2.60;99.90;;;;;;5034049;28;20207;-65
2023/02/08 07:08:44;;;;;;;9.50;9.00;;;-2.50;99.90;;;;;;5055987;28;20187;-64
2023/02/08 07:11:14;;;;;;;11.73;10.73;;;-2.50;99.90;;;;;;5055839;28;20274;-65
2023/02/08 07:13:39;;;;;;;9.53;8.97;;;-2.50;99.90;;;;;;5036286;28;20222;-65
2023/02/08 07:16:06;;;;;;;10.87;10.17;;;-2.50;99.90;;;;;;5050692;28;20209;-64
2023/02/08 07:18:32;;;;;;;9.87;9.03;;;-2.40;99.90;;;;;;5036407;28;20259;-65
2023/02/08 07:20:58;;;;;;;10.17;9.43;;;-2.40;99.90;;;;;;5034242;28;20191;-64
2023/02/08 07:23:24;;;;;;;10.60;9.80;;;-2.40;99.90;;;;;;5049917;28;20682;-67
2023/02/08 07:25:57;;;;;;;10.07;9.47;;;-2.50;89.40;;;;;;5052822;28;20545;-64
2023/02/08 07:28:23;;;;;;;12.00;10.90;;;-2.40;78.30;;;;;;5037862;28;20182;-64
2023/02/08 07:30:48;;;;;;;9.83;9.23;;;-2.50;99.90;;;;;;5033369;28;20193;-64
2023/02/08 07:33:14;;;;;;;11.13;10.13;;;-2.50;54.50;;;;;;5046565;28;20551;-64
2023/02/08 07:35:39;;;;;;;11.47;10.63;;;-2.50;33.40;;;;;;5053654;28;20608;-64
2023/02/08 07:38:05;;;;;;;11.87;10.90;;;-2.50;82.60;;;;;;5041708;28;20223;-64
2023/02/08 07:40:31;;;;;;;10.50;9.73;;;-2.50;99.20;;;;;;5033102;28;20218;-65
2023/02/08 07:42:56;;;;;;;12.07;11.23;;;-2.40;99.90;;;;;;5043206;28;20226;-64
2023/02/08 07:45:22;;;;;;;10.07;9.67;;;-2.40;99.30;;;;;;5047414;28;20191;-65
2023/02/08 07:47:48;;;;;;;10.80;9.67;;;-2.30;63.70;;;;;;5033623;28;20179;-65
2023/02/08 07:50:15;;;;;;;9.87;9.27;;;-2.30;9.60;;;;;;5036523;28;20178;-64
2023/02/08 07:52:42;;;;;;;10.00;9.13;;;-2.20;18.60;;;;;;5053102;28;20180;-65
2023/02/08 07:55:10;;;;;;;12.00;11.13;;;-2.10;2.70;;;;;;5050510;28;20180;-65
2023/02/08 07:57:36;;;;;;;11.63;10.60;;;-2.10;1.00;;;;;;5033265;28;20171;-64
2023/02/08 08:00:02;;;;;;;9.17;8.57;;;-2.00;1.00;;;;;;5033385;28;20170;-64
2023/02/08 08:02:28;;;;;;;10.90;10.03;;;-1.90;1.00;;;;;;5052193;28;20663;-64
2023/02/08 08:04:53;;;;;;;11.37;10.47;;;-1.80;1.00;;;;;;5051707;28;20178;-64
2023/02/08 08:07:19;;;;;;;12.13;11.03;;;-1.70;1.00;;;;;;5033527;28;20211;-64
2023/02/08 08:09:45;;;;;;;12.73;11.67;;;-1.50;1.00;;;;;;5032786;28;20171;-64
2023/02/08 08:12:10;;;;;;;11.67;10.63;;;-1.00;99.90;;;;;;5033779;28;20199;-65
2023/02/08 08:14:36;;;;;;;9.57;8.80;;;-0.30;99.90;;;;;;5032795;28;20548;-64
2023/02/08 08:17:01;;;;;;;10.23;9.53;;;0.40;1.00;;;;;;5034592;28;20229;-65
2023/02/08 08:19:27;;;;;;;9.97;9.17;;;1.10;1.00;;;;;;5032372;28;20186;-65
2023/02/08 08:21:52;;;;;;;10.40;9.33;;;1.60;1.00;;;;;;5045822;28;20668;-65
2023/02/08 08:24:18;;;;;;;9.17;8.40;;;2.20;1.00;;;;;;5052459;28;20199;-65
2023/02/08 08:26:44;;;;;;;11.03;10.23;;;2.60;1.00;;;;;;5050820;28;20210;-65
2023/02/08 08:29:09;;;;;;;11.87;10.70;;;2.90;1.00;;;;;;5052266;28;20539;-65
2023/02/08 08:31:37;;;;;;;11.07;9.63;;;3.10;1.00;;;;;;5034248;28;20203;-64
2023/02/08 08:34:03;;;;;;;8.70;8.00;;;3.30;1.00;;;;;;5032638;28;20164;-64
2023/02/08 08:36:29;;;;;;;8.70;8.10;;;3.60;1.00;;;;;;5048050;28;20640;-65
2023/02/08 08:38:55;;;;;;;14.17;7.83;;;3.90;1.00;;;;;;5048262;28;20269;-65
2023/02/08 08:41:21;;;;;;;10.17;8.13;;;4.20;99.90;;;;;;5031649;28;20211;-66
2023/02/08 08:43:47;;;;;;;8.87;8.07;;;4.60;99.90;;;;;;5033842;28;20604;-65
2023/02/08 08:46:15;;;;;;;8.60;7.37;;;5.00;99.90;;;;;;5043135;28;20199;-66
2023/02/08 08:48:41;;;;;;;7.70;7.13;;;5.40;99.90;;;;;;5032163;28;20176;-66
2023/02/08 08:51:07;;;;;;;8.20;7.60;;;5.70;99.90;;;;;;5031850;28;20248;-66
2023/02/08 08:53:32;;;;;;;9.00;8.30;;;6.10;99.90;;;;;;5032302;28;20226;-66
2023/02/08 08:55:58;;;;;;;9.07;8.27;;;6.10;99.90;;;;;;5050541;28;20190;-66
2023/02/08 08:58:24;;;;;;;12.00;8.33;;;6.30;99.90;;;;;;5052167;28;20179;-65
2023/02/08 09:00:49;;;;;;;8.87;8.00;;;6.20;99.90;;;;;;5034806;28;20577;-65
2023/02/08 09:03:15;;;;;;;10.47;8.30;;;6.30;99.90;;;;;;5032189;28;20182;-66
2023/02/08 09:05:41;;;;;;;9.17;8.37;;;6.20;99.90;;;;;;5046523;28;20256;-66
2023/02/08 09:08:06;;;;;;;9.37;8.13;;;6.30;99.90;;;;;;5037755;28;20307;-66
2023/02/08 09:10:32;;;;;;;8.60;7.80;;;6.40;99.90;;;;;;5031342;28;20191;-65
2023/02/08 09:12:58;;;;;;;8.30;7.60;;;6.50;99.90;;;;;;5033122;28;20608;-65
2023/02/08 09:15:23;;;;;;;7.77;7.17;;;6.50;99.90;;;;;;5031775;28;20214;-66
2023/02/08 09:17:49;;;;;;;7.87;7.27;;;6.70;99.90;;;;;;5047699;28;20186;-66
2023/02/08 09:20:15;;;;;;;8.27;7.57;;;6.90;99.90;;;;;;5051245;28;20269;-66
2023/02/08 09:22:40;;;;;;;7.83;7.10;;;7.10;99.90;;;;;;5035130;28;20596;-66
2023/02/08 09:25:06;;;;;;;7.53;6.93;;;7.40;99.90;;;;;;5031131;28;20172;-65
2023/02/08 09:27:33;;;;;;;12.27;7.17;;;7.60;99.90;;;;;;5043849;28;20221;-65
2023/02/08 09:29:59;;;;;;;7.43;6.93;;;7.80;99.90;;;;;;5051065;28;20179;-66
2023/02/08 09:32:24;;;;;;;7.13;6.63;;;8.00;99.90;;;;;;5038860;28;20573;-65
2023/02/08 09:34:50;;;;;;;7.50;6.80;;;8.30;99.90;;;;;;5031613;28;20178;-66
2023/02/08 09:37:16;;;;;;;7.63;7.07;;;8.40;99.90;;;;;;5040862;28;20244;-66
2023/02/08 09:39:43;;;;;;;12.07;6.97;;;8.30;99.90;;;;;;5051421;28;20379;-66
2023/02/08 09:42:23;;;;;;;6.77;6.30;;;8.30;99.90;;;;;;5035976;28;20572;-65
2023/02/08 09:45:15;;;;;;;8.23;7.30;;;8.30;99.90;;;;;;5031354;28;20282;-66
2023/02/08 09:47:54;;;;;;;7.83;7.13;;;8.40;99.90;;;;;;5042013;28;20575;-65
2023/02/08 09:50:29;;;;;;;10.43;8.73;;;8.60;99.90;;;;;;5051004;28;20190;-66
2023/02/08 09:53:03;;;;;;;8.37;7.47;;;8.70;99.90;;;;;;5050749;28;20554;-66
2023/02/08 09:55:38;;;;;;;8.00;7.20;;;8.90;99.90;;;;;;5051237;28;20880;-66
2023/02/08 09:58:14;;;;;;;6.73;6.13;;;8.90;99.90;;;;;;5051299;28;20216;-66
2023/02/08 10:00:44;;;;;;;6.80;6.13;;;8.90;99.90;;;;;;5037812;28;20428;-66
2023/02/08 10:03:41;;;;;;;7.83;7.33;;;8.70;99.90;;;;;;5031264;28;20581;-66
2023/02/08 10:06:11;;;;;;;7.37;6.83;;;8.40;99.90;;;;;;5031137;28;20215;-66
2023/02/08 10:08:38;;;;;;;7.97;7.13;;;8.30;99.90;;;;;;5031035;28;20192;-66
2023/02/08 10:11:42;;;;;;;9.30;7.60;;;8.20;99.90;;;;;;5031244;28;20191;-66
2023/02/08 10:14:26;;;;;;;8.90;7.83;;;8.30;99.90;;;;;;5029619;28;20551;-66
2023/02/08 10:17:09;;;;;;;7.27;6.67;;;8.60;99.90;;;;;;5011504;28;20180;-66
2023/02/08 10:20:01;;;;;;;7.13;6.57;;;8.80;99.90;;;;;;5027253;28;20680;-66
2023/02/08 10:22:58;;;;;;;6.03;5.63;;;8.80;99.90;;;;;;5050913;28;20179;-66
2023/02/08 10:25:33;;;;;;;6.47;5.97;;;8.80;99.90;;;;;;5049512;28;20224;-66
2023/02/08 10:28:24;;;;;;;8.47;6.43;;;8.90;99.90;;;;;;5053722;28;20185;-66
2023/02/08 10:30:55;;;;;;;7.17;6.57;;;9.10;99.90;;;;;;5034599;28;20203;-66
2023/02/08 10:33:30;;;;;;;6.10;5.60;;;9.20;99.90;;;;;;5034791;28;20180;-65
2023/02/08 10:35:56;;;;;;;6.17;5.57;;;9.40;99.90;;;;;;5054775;28;20197;-66
2023/02/08 10:38:29;;;;;;;6.50;5.97;;;9.50;99.90;;;;;;5054878;28;20525;-66
2023/02/08 10:41:05;;;;;;;6.77;6.17;;;9.50;99.90;;;;;;5034865;28;20583;-66
2023/02/08 10:43:34;;;;;;;6.47;5.97;;;9.60;99.90;;;;;;5034643;28;20171;-66
2023/02/08 10:46:23;;;;;;;6.80;6.20;;;9.70;99.90;;;;;;5049021;28;20582;-66
2023/02/08 10:49:07;;;;;;;6.87;6.27;;;9.70;99.90;;;;;;5034680;28;20176;-66
2023/02/08 10:51:33;;;;;;;5.93;5.33;;;9.80;99.90;;;;;;5034601;28;20191;-66
2023/02/08 10:53:58;;;;;;;6.70;6.13;;;9.80;99.90;;;;;;5043449;28;20240;-66
2023/02/08 10:56:35;;;;;;;5.87;5.40;;;9.90;99.90;;;;;;5054392;28;20257;-66
2023/02/08 10:59:28;;;;;;;6.33;5.83;;;10.10;99.90;;;;;;5045427;28;20198;-65
2023/02/08 11:01:55;;;;;;;6.30;5.80;;;10.20;99.90;;;;;;5034453;28;20542;-65
2023/02/08 11:04:21;;;;;;;7.07;6.20;;;10.10;99.90;;;;;;5045186;28;20240;-66
2023/02/08 11:06:48;;;;;;;8.37;5.63;;;10.30;99.90;;;;;;5054090;28;20301;-66
2023/02/08 11:09:28;;;;;;;6.07;5.57;;;10.30;99.90;;;;;;5044279;28;20183;-67
2023/02/08 11:11:55;;;;;;;6.50;5.90;;;10.30;99.90;;;;;;5034099;28;20191;-66
2023/02/08 11:14:38;;;;;;;6.13;5.53;;;10.50;99.90;;;;;;5043307;28;20186;-66
2023/02/08 11:17:21;;;;;;;5.97;5.47;;;10.80;99.90;;;;;;5034475;28;20183;-67
2023/02/08 11:19:49;;;;;;;6.67;6.10;;;11.00;99.90;;;;;;5045489;28;20190;-65
2023/02/08 11:22:17;;;;;;;11.53;6.00;;;11.20;99.90;;;;;;5047638;28;20203;-66
2023/02/08 11:24:49;;;;;;;7.27;6.53;;;11.40;99.90;;;;;;5046044;28;20178;-66
2023/02/08 11:27:28;;;;;;;6.37;5.83;;;11.60;99.90;;;;;;5049645;28;20199;-65
2023/02/08 11:30:23;;;;;;;6.60;6.17;;;11.40;99.90;;;;;;5033757;28;20248;-66
2023/02/08 11:33:17;;;;;;;6.40;5.73;;;11.20;99.90;;;;;;5041349;28;20217;-66
2023/02/08 11:36:01;;;;;;;6.57;5.70;;;11.20;99.90;;;;;;5053724;28;20171;-66
2023/02/08 11:38:27;;;;;;;6.23;5.63;;;11.30;99.90;;;;;;5039311;28;20187;-67
2023/02/08 11:40:59;;;;;;;6.40;5.80;;;11.30;99.90;;;;;;5033031;28;20661;-66
2023/02/08 11:43:26;;;;;;;6.73;6.03;;;11.30;99.90;;;;;;5045306;28;20229;-66
2023/02/08 11:45:54;;;;;;;6.73;6.07;;;11.20;99.90;;;;;;5053432;28;20252;-66
2023/02/08 11:48:24;;;;;;;9.97;6.40;;;11.20;99.90;;;;;;5042487;28;20175;-66
2023/02/08 11:50:56;;;;;;;6.87;6.27;;;11.20;99.90;;;;;;5033045;28;20196;-65
2023/02/08 11:53:35;;;;;;;7.27;6.63;;;11.10;99.90;;;;;;5048107;28;20210;-66
2023/02/08 11:56:05;;;;;;;7.70;6.90;;;11.20;99.90;;;;;;5032032;28;20717;-65
2023/02/08 11:58:33;;;;;;;6.10;5.67;;;11.30;99.90;;;;;;5033803;28;20215;-67
2023/02/08 12:01:05;;;;;;;6.97;6.37;;;11.20;99.90;;;;;;5033260;28;20195;-66
2023/02/08 12:03:36;;;;;;;7.83;6.83;;;11.00;99.90;;;;;;5038104;28;20241;-66
2023/02/08 12:06:14;;;;;;;5.57;5.23;;;11.00;99.90;;;;;;5032604;28;20203;-67
2023/02/08 12:09:01;;;;;;;5.83;5.33;;;10.90;99.90;;;;;;5045675;28;20261;-67
2023/02/08 12:11:43;;;;;;;8.90;6.07;;;10.90;99.90;;;;;;5049485;28;20203;-67
2023/02/08 12:14:39;;;;;;;6.60;5.97;;;10.80;99.90;;;;;;5035925;28;20267;-67
2023/02/08 12:17:42;;;;;;;6.73;6.07;;;10.90;99.90;;;;;;5025180;28;20183;-67
2023/02/08 12:20:39;;;;;;;6.73;6.13;;;10.70;99.90;;;;;;5032450;28;20179;-67
2023/02/08 12:23:10;;;;;;;7.20;6.57;;;10.40;99.90;;;;;;5033031;28;20175;-66
2023/02/08 12:25:57;;;;;;;7.10;6.60;;;10.30;99.90;;;;;;5033116;28;20633;-67
2023/02/08 12:28:51;;;;;;;6.40;5.77;;;10.40;99.90;;;;;;5031412;28;20270;-67
2023/02/08 12:31:32;;;;;;;6.17;5.67;;;10.50;99.90;;;;;;5049071;28;20198;-66
2023/02/08 12:34:03;;;;;;;6.43;5.93;;;10.70;99.90;;;;;;5052811;28;20182;-67
2023/02/08 12:43:40;;;;;;;5.50;5.10;;;10.90;99.90;;;;;;5007344;28;20307;-67
2023/02/08 12:46:29;;;;;;;5.70;5.20;;;10.90;99.90;;;;;;5030071;28;20215;-65
2023/02/08 12:49:32;;;;;;;6.30;5.47;;;11.00;99.90;;;;;;5036325;28;20190;-66
2023/02/08 12:52:22;;;;;;;5.33;4.93;;;11.20;99.90;;;;;;5034406;28;20620;-65
2023/02/08 12:54:53;;;;;;;5.80;5.40;;;11.30;99.90;;;;;;5032240;28;20171;-66
2023/02/08 12:57:23;;;;;;;6.00;5.50;;;11.40;99.90;;;;;;5047157;28;20187;-66
2023/02/08 12:59:57;;;;;;;5.40;5.00;;;11.90;99.90;;;;;;5044800;28;20186;-65
2023/02/08 13:02:44;;;;;;;5.70;5.20;;;12.10;99.90;;;;;;5032206;28;20195;-65
2023/02/08 13:05:21;;;;;;;5.33;4.93;;;12.30;99.90;;;;;;5032370;28;20189;-65
2023/02/08 13:07:53;;;;;;;4.83;4.37;;;12.50;99.90;;;;;;5032534;28;20183;-65
2023/02/08 13:10:25;;;;;;;4.90;4.60;;;12.70;99.90;;;;;;5031522;28;20656;-65
2023/02/08 13:12:56;;;;;;;5.40;5.00;;;12.70;99.90;;;;;;5049448;28;20187;-65
2023/02/08 13:15:26;;;;;;;10.03;5.33;;;12.50;99.90;;;;;;5052224;28;20175;-66
2023/02/08 13:17:57;;;;;;;5.30;4.90;;;12.60;99.90;;;;;;5034689;28;20555;-66